Auburn, Washington
Current Conditions -  °F | °C
As of 6:53 PM on Friday 19 Dec 2014 (Local Time) from KSEA Reporting Station
Broken Clouds Broken Clouds  
Wind Chill: 46°   Ceiling: 6000
Heat Index: 49°   Visibility: 10mi
Dew Point: 36°   Wind: 7mph
Humidity: 61%   Direction: 180°S
Pressure: 29.95"   Gusts: NA
Location:  47.31°N, 122.23°W
Report Text: KSEA 200253Z 18006KT 10SM SCT049 BKN060 BKN100 09/02 A2995 RMK AO2 SLP149 T00940022 56002
Loading
Personal Weather Stations






























Interactive Weather Map New forecast layout! Learn more

10-Day Weather Forecast

Advertisements
Track Severe Weather on mobile